sensor_id;sensor_type;location;lat;lon;timestamp;P1;durP1;ratioP1;P2;durP2;ratioP2
42864;SDS011;28511;42.680;23.252;2023-04-03T00:00:38;0.43;;;0.43;;
42864;SDS011;28511;42.680;23.252;2023-04-03T00:03:03;0.95;;;0.70;;
42864;SDS011;28511;42.680;23.252;2023-04-03T00:05:28;0.45;;;0.45;;
42864;SDS011;28511;42.680;23.252;2023-04-03T00:07:54;0.60;;;0.60;;
42864;SDS011;28511;42.680;23.252;2023-04-03T00:10:19;1.58;;;0.82;;
42864;SDS011;28511;42.680;23.252;2023-04-03T00:12:45;0.73;;;0.73;;
42864;SDS011;28511;42.680;23.252;2023-04-03T00:15:10;1.65;;;0.85;;
42864;SDS011;28511;42.680;23.252;2023-04-03T00:17:35;0.52;;;0.52;;
42864;SDS011;28511;42.680;23.252;2023-04-03T00:20:01;0.38;;;0.38;;
42864;SDS011;28511;42.680;23.252;2023-04-03T00:22:26;0.60;;;0.60;;
42864;SDS011;28511;42.680;23.252;2023-04-03T00:24:53;0.55;;;0.55;;
42864;SDS011;28511;42.680;23.252;2023-04-03T00:27:19;0.90;;;0.90;;
42864;SDS011;28511;42.680;23.252;2023-04-03T00:29:44;0.60;;;0.60;;
42864;SDS011;28511;42.680;23.252;2023-04-03T00:32:09;1.15;;;0.70;;
42864;SDS011;28511;42.680;23.252;2023-04-03T00:34:34;0.30;;;0.30;;
42864;SDS011;28511;42.680;23.252;2023-04-03T00:37:00;0.80;;;0.70;;
42864;SDS011;28511;42.680;23.252;2023-04-03T00:39:25;0.80;;;0.80;;
42864;SDS011;28511;42.680;23.252;2023-04-03T00:41:50;1.42;;;1.02;;
42864;SDS011;28511;42.680;23.252;2023-04-03T00:45:18;0.57;;;0.57;;
42864;SDS011;28511;42.680;23.252;2023-04-03T00:47:05;0.47;;;0.47;;
42864;SDS011;28511;42.680;23.252;2023-04-03T00:49:31;0.43;;;0.43;;
42864;SDS011;28511;42.680;23.252;2023-04-03T00:52:02;0.40;;;0.40;;
42864;SDS011;28511;42.680;23.252;2023-04-03T00:54:28;0.65;;;0.52;;
42864;SDS011;28511;42.680;23.252;2023-04-03T00:56:54;1.52;;;0.57;;
42864;SDS011;28511;42.680;23.252;2023-04-03T00:59:26;0.47;;;0.47;;
42864;SDS011;28511;42.680;23.252;2023-04-03T01:01:55;1.17;;;0.82;;
42864;SDS011;28511;42.680;23.252;2023-04-03T01:04:34;0.40;;;0.40;;
42864;SDS011;28511;42.680;23.252;2023-04-03T01:07:02;1.38;;;0.45;;
42864;SDS011;28511;42.680;23.252;2023-04-03T01:09:28;0.80;;;0.80;;
42864;SDS011;28511;42.680;23.252;2023-04-03T01:11:54;0.50;;;0.50;;
42864;SDS011;28511;42.680;23.252;2023-04-03T01:14:19;0.70;;;0.70;;
42864;SDS011;28511;42.680;23.252;2023-04-03T01:16:53;0.32;;;0.32;;
42864;SDS011;28511;42.680;23.252;2023-04-03T01:19:19;1.23;;;0.90;;
42864;SDS011;28511;42.680;23.252;2023-04-03T01:24:47;0.50;;;0.50;;
42864;SDS011;28511;42.680;23.252;2023-04-03T01:27:12;0.57;;;0.52;;
42864;SDS011;28511;42.680;23.252;2023-04-03T01:29:38;0.70;;;0.70;;
42864;SDS011;28511;42.680;23.252;2023-04-03T01:32:04;0.30;;;0.30;;
42864;SDS011;28511;42.680;23.252;2023-04-03T01:34:29;1.33;;;0.63;;
42864;SDS011;28511;42.680;23.252;2023-04-03T01:36:54;0.50;;;0.50;;
42864;SDS011;28511;42.680;23.252;2023-04-03T01:39:20;0.60;;;0.60;;
42864;SDS011;28511;42.680;23.252;2023-04-03T01:41:46;0.77;;;0.77;;
42864;SDS011;28511;42.680;23.252;2023-04-03T01:44:11;1.27;;;0.95;;
42864;SDS011;28511;42.680;23.252;2023-04-03T01:46:36;1.02;;;0.93;;
42864;SDS011;28511;42.680;23.252;2023-04-03T01:49:03;1.88;;;1.70;;
42864;SDS011;28511;42.680;23.252;2023-04-03T01:51:28;0.60;;;0.60;;
42864;SDS011;28511;42.680;23.252;2023-04-03T01:53:53;1.83;;;1.73;;
42864;SDS011;28511;42.680;23.252;2023-04-03T01:56:18;0.80;;;0.80;;
42864;SDS011;28511;42.680;23.252;2023-04-03T01:58:45;0.60;;;0.60;;
42864;SDS011;28511;42.680;23.252;2023-04-03T02:01:10;3.25;;;1.23;;
42864;SDS011;28511;42.680;23.252;2023-04-03T02:03:35;4.03;;;1.50;;
42864;SDS011;28511;42.680;23.252;2023-04-03T02:06:01;0.90;;;0.90;;
42864;SDS011;28511;42.680;23.252;2023-04-03T02:08:26;3.15;;;0.70;;
42864;SDS011;28511;42.680;23.252;2023-04-03T02:10:52;0.50;;;0.50;;
42864;SDS011;28511;42.680;23.252;2023-04-03T02:13:17;0.85;;;0.75;;
42864;SDS011;28511;42.680;23.252;2023-04-03T02:15:42;2.15;;;1.10;;
42864;SDS011;28511;42.680;23.252;2023-04-03T02:18:08;2.05;;;0.88;;
42864;SDS011;28511;42.680;23.252;2023-04-03T02:20:33;0.50;;;0.50;;
42864;SDS011;28511;42.680;23.252;2023-04-03T02:22:59;0.75;;;0.75;;
42864;SDS011;28511;42.680;23.252;2023-04-03T02:25:24;0.60;;;0.60;;
42864;SDS011;28511;42.680;23.252;2023-04-03T02:27:49;0.52;;;0.52;;
42864;SDS011;28511;42.680;23.252;2023-04-03T02:30:15;0.38;;;0.38;;
42864;SDS011;28511;42.680;23.252;2023-04-03T02:32:41;0.65;;;0.65;;
42864;SDS011;28511;42.680;23.252;2023-04-03T02:35:06;0.55;;;0.55;;
42864;SDS011;28511;42.680;23.252;2023-04-03T02:37:32;1.55;;;1.00;;
42864;SDS011;28511;42.680;23.252;2023-04-03T02:39:57;0.30;;;0.30;;
42864;SDS011;28511;42.680;23.252;2023-04-03T02:42:22;2.47;;;0.52;;
42864;SDS011;28511;42.680;23.252;2023-04-03T02:44:48;0.30;;;0.30;;
42864;SDS011;28511;42.680;23.252;2023-04-03T02:47:13;2.95;;;1.30;;
42864;SDS011;28511;42.680;23.252;2023-04-03T02:49:38;1.17;;;1.02;;
42864;SDS011;28511;42.680;23.252;2023-04-03T02:52:03;0.82;;;0.82;;
42864;SDS011;28511;42.680;23.252;2023-04-03T02:54:29;0.80;;;0.80;;
42864;SDS011;28511;42.680;23.252;2023-04-03T02:56:55;0.60;;;0.55;;
42864;SDS011;28511;42.680;23.252;2023-04-03T02:59:21;1.05;;;1.05;;
42864;SDS011;28511;42.680;23.252;2023-04-03T03:01:46;0.40;;;0.40;;
42864;SDS011;28511;42.680;23.252;2023-04-03T03:04:11;0.52;;;0.52;;
42864;SDS011;28511;42.680;23.252;2023-04-03T03:06:36;1.42;;;1.33;;
42864;SDS011;28511;42.680;23.252;2023-04-03T03:09:02;0.63;;;0.63;;
42864;SDS011;28511;42.680;23.252;2023-04-03T03:11:28;0.45;;;0.45;;
42864;SDS011;28511;42.680;23.252;2023-04-03T03:13:53;1.27;;;0.90;;
42864;SDS011;28511;42.680;23.252;2023-04-03T03:16:19;0.60;;;0.60;;
42864;SDS011;28511;42.680;23.252;2023-04-03T03:18:45;0.60;;;0.60;;
42864;SDS011;28511;42.680;23.252;2023-04-03T03:21:10;2.38;;;0.98;;
42864;SDS011;28511;42.680;23.252;2023-04-03T03:23:36;0.65;;;0.63;;
42864;SDS011;28511;42.680;23.252;2023-04-03T03:26:03;0.50;;;0.50;;
42864;SDS011;28511;42.680;23.252;2023-04-03T03:28:28;1.27;;;1.05;;
42864;SDS011;28511;42.680;23.252;2023-04-03T03:30:54;3.05;;;1.90;;
42864;SDS011;28511;42.680;23.252;2023-04-03T03:33:19;0.73;;;0.73;;
42864;SDS011;28511;42.680;23.252;2023-04-03T03:35:45;1.40;;;1.30;;
42864;SDS011;28511;42.680;23.252;2023-04-03T03:38:10;1.60;;;1.30;;
42864;SDS011;28511;42.680;23.252;2023-04-03T03:40:36;2.20;;;1.00;;
42864;SDS011;28511;42.680;23.252;2023-04-03T03:43:01;0.63;;;0.63;;
42864;SDS011;28511;42.680;23.252;2023-04-03T03:45:26;3.08;;;2.00;;
42864;SDS011;28511;42.680;23.252;2023-04-03T03:47:52;0.98;;;0.90;;
42864;SDS011;28511;42.680;23.252;2023-04-03T03:50:17;2.83;;;1.48;;
42864;SDS011;28511;42.680;23.252;2023-04-03T03:52:42;1.35;;;1.30;;
42864;SDS011;28511;42.680;23.252;2023-04-03T03:55:08;1.13;;;1.08;;
42864;SDS011;28511;42.680;23.252;2023-04-03T03:57:33;3.92;;;2.17;;
42864;SDS011;28511;42.680;23.252;2023-04-03T03:59:58;0.85;;;0.85;;
42864;SDS011;28511;42.680;23.252;2023-04-03T04:02:23;2.10;;;0.93;;
42864;SDS011;28511;42.680;23.252;2023-04-03T04:04:49;0.88;;;0.88;;
42864;SDS011;28511;42.680;23.252;2023-04-03T04:07:14;2.67;;;1.15;;
42864;SDS011;28511;42.680;23.252;2023-04-03T04:09:39;0.90;;;0.90;;
42864;SDS011;28511;42.680;23.252;2023-04-03T04:12:05;0.80;;;0.80;;
42864;SDS011;28511;42.680;23.252;2023-04-03T04:14:30;1.52;;;1.33;;
42864;SDS011;28511;42.680;23.252;2023-04-03T04:16:55;4.68;;;1.63;;
42864;SDS011;28511;42.680;23.252;2023-04-03T04:19:20;2.38;;;1.33;;
42864;SDS011;28511;42.680;23.252;2023-04-03T04:21:46;2.25;;;1.38;;
42864;SDS011;28511;42.680;23.252;2023-04-03T04:24:11;2.05;;;1.83;;
42864;SDS011;28511;42.680;23.252;2023-04-03T04:26:36;1.63;;;1.55;;
42864;SDS011;28511;42.680;23.252;2023-04-03T04:29:01;3.42;;;2.38;;
42864;SDS011;28511;42.680;23.252;2023-04-03T04:31:27;2.25;;;1.42;;
42864;SDS011;28511;42.680;23.252;2023-04-03T04:33:52;1.50;;;1.40;;
42864;SDS011;28511;42.680;23.252;2023-04-03T04:36:17;1.70;;;1.52;;
42864;SDS011;28511;42.680;23.252;2023-04-03T04:38:43;1.95;;;1.33;;
42864;SDS011;28511;42.680;23.252;2023-04-03T04:41:08;4.93;;;3.15;;
42864;SDS011;28511;42.680;23.252;2023-04-03T04:43:34;0.85;;;0.85;;
42864;SDS011;28511;42.680;23.252;2023-04-03T04:46:00;1.92;;;1.80;;
42864;SDS011;28511;42.680;23.252;2023-04-03T04:48:25;3.42;;;2.65;;
42864;SDS011;28511;42.680;23.252;2023-04-03T04:50:50;3.58;;;1.50;;
42864;SDS011;28511;42.680;23.252;2023-04-03T04:53:16;2.73;;;1.63;;
42864;SDS011;28511;42.680;23.252;2023-04-03T04:55:41;7.97;;;3.83;;
42864;SDS011;28511;42.680;23.252;2023-04-03T04:58:06;2.80;;;2.03;;
42864;SDS011;28511;42.680;23.252;2023-04-03T05:00:31;3.67;;;2.55;;
42864;SDS011;28511;42.680;23.252;2023-04-03T05:02:57;2.03;;;1.77;;
42864;SDS011;28511;42.680;23.252;2023-04-03T05:05:22;8.33;;;2.77;;
42864;SDS011;28511;42.680;23.252;2023-04-03T05:07:48;4.28;;;3.58;;
42864;SDS011;28511;42.680;23.252;2023-04-03T05:10:13;3.40;;;1.50;;
42864;SDS011;28511;42.680;23.252;2023-04-03T05:12:38;3.60;;;2.03;;
42864;SDS011;28511;42.680;23.252;2023-04-03T05:15:04;5.53;;;3.30;;
42864;SDS011;28511;42.680;23.252;2023-04-03T05:17:29;2.55;;;2.28;;
42864;SDS011;28511;42.680;23.252;2023-04-03T05:19:55;2.35;;;2.15;;
42864;SDS011;28511;42.680;23.252;2023-04-03T05:22:20;7.88;;;3.25;;
42864;SDS011;28511;42.680;23.252;2023-04-03T05:24:45;1.45;;;1.35;;
42864;SDS011;28511;42.680;23.252;2023-04-03T05:27:10;1.63;;;1.52;;
42864;SDS011;28511;42.680;23.252;2023-04-03T05:29:35;2.63;;;2.25;;
42864;SDS011;28511;42.680;23.252;2023-04-03T05:32:01;4.50;;;2.05;;
42864;SDS011;28511;42.680;23.252;2023-04-03T05:34:26;3.10;;;1.77;;
42864;SDS011;28511;42.680;23.252;2023-04-03T05:36:51;1.63;;;1.52;;
42864;SDS011;28511;42.680;23.252;2023-04-03T05:39:16;2.33;;;1.73;;
42864;SDS011;28511;42.680;23.252;2023-04-03T05:41:42;1.67;;;1.58;;
42864;SDS011;28511;42.680;23.252;2023-04-03T05:44:10;1.75;;;1.65;;
42864;SDS011;28511;42.680;23.252;2023-04-03T05:46:35;2.03;;;1.60;;
42864;SDS011;28511;42.680;23.252;2023-04-03T05:49:00;3.58;;;1.88;;
42864;SDS011;28511;42.680;23.252;2023-04-03T05:51:28;1.38;;;1.27;;
42864;SDS011;28511;42.680;23.252;2023-04-03T05:53:58;4.88;;;1.33;;
42864;SDS011;28511;42.680;23.252;2023-04-03T05:56:25;2.38;;;1.63;;
42864;SDS011;28511;42.680;23.252;2023-04-03T05:58:51;2.40;;;1.45;;
42864;SDS011;28511;42.680;23.252;2023-04-03T06:01:16;2.13;;;1.77;;
42864;SDS011;28511;42.680;23.252;2023-04-03T06:03:42;3.78;;;1.95;;
42864;SDS011;28511;42.680;23.252;2023-04-03T06:06:07;1.50;;;1.27;;
42864;SDS011;28511;42.680;23.252;2023-04-03T06:08:33;1.88;;;1.65;;
42864;SDS011;28511;42.680;23.252;2023-04-03T06:10:58;5.68;;;2.42;;
42864;SDS011;28511;42.680;23.252;2023-04-03T06:13:24;2.28;;;1.33;;
42864;SDS011;28511;42.680;23.252;2023-04-03T06:15:49;5.55;;;1.30;;
42864;SDS011;28511;42.680;23.252;2023-04-03T06:18:14;2.00;;;1.67;;
42864;SDS011;28511;42.680;23.252;2023-04-03T06:20:40;4.43;;;1.40;;
42864;SDS011;28511;42.680;23.252;2023-04-03T06:23:05;3.53;;;2.28;;
42864;SDS011;28511;42.680;23.252;2023-04-03T06:25:30;2.78;;;1.58;;
42864;SDS011;28511;42.680;23.252;2023-04-03T06:27:56;1.52;;;1.25;;
42864;SDS011;28511;42.680;23.252;2023-04-03T06:30:22;4.20;;;1.77;;
42864;SDS011;28511;42.680;23.252;2023-04-03T06:32:47;2.40;;;1.77;;
42864;SDS011;28511;42.680;23.252;2023-04-03T06:35:12;2.00;;;1.48;;
42864;SDS011;28511;42.680;23.252;2023-04-03T06:37:38;3.78;;;1.88;;
42864;SDS011;28511;42.680;23.252;2023-04-03T06:40:03;1.38;;;1.27;;
42864;SDS011;28511;42.680;23.252;2023-04-03T06:42:29;1.25;;;1.15;;
42864;SDS011;28511;42.680;23.252;2023-04-03T06:44:55;1.15;;;1.05;;
42864;SDS011;28511;42.680;23.252;2023-04-03T06:47:21;0.83;;;0.73;;
42864;SDS011;28511;42.680;23.252;2023-04-03T06:49:46;3.05;;;2.72;;
42864;SDS011;28511;42.680;23.252;2023-04-03T06:52:11;1.67;;;1.40;;
42864;SDS011;28511;42.680;23.252;2023-04-03T06:54:37;1.15;;;1.00;;
42864;SDS011;28511;42.680;23.252;2023-04-03T06:57:02;1.08;;;0.98;;
42864;SDS011;28511;42.680;23.252;2023-04-03T06:59:28;1.25;;;0.88;;
42864;SDS011;28511;42.680;23.252;2023-04-03T07:01:54;1.42;;;1.33;;
42864;SDS011;28511;42.680;23.252;2023-04-03T07:04:19;2.13;;;1.45;;
42864;SDS011;28511;42.680;23.252;2023-04-03T07:06:47;3.15;;;1.13;;
42864;SDS011;28511;42.680;23.252;2023-04-03T07:09:13;2.30;;;2.10;;
42864;SDS011;28511;42.680;23.252;2023-04-03T07:11:39;1.75;;;1.50;;
42864;SDS011;28511;42.680;23.252;2023-04-03T07:14:05;1.98;;;0.95;;
42864;SDS011;28511;42.680;23.252;2023-04-03T07:16:32;1.60;;;1.50;;
42864;SDS011;28511;42.680;23.252;2023-04-03T07:18:58;1.70;;;1.00;;
42864;SDS011;28511;42.680;23.252;2023-04-03T07:21:23;3.85;;;1.45;;
42864;SDS011;28511;42.680;23.252;2023-04-03T07:23:49;1.27;;;1.00;;
42864;SDS011;28511;42.680;23.252;2023-04-03T07:26:14;1.65;;;0.93;;
42864;SDS011;28511;42.680;23.252;2023-04-03T07:28:39;1.92;;;1.45;;
42864;SDS011;28511;42.680;23.252;2023-04-03T07:31:07;0.80;;;0.80;;
42864;SDS011;28511;42.680;23.252;2023-04-03T07:33:33;1.90;;;1.33;;
42864;SDS011;28511;42.680;23.252;2023-04-03T07:35:59;0.90;;;0.90;;
42864;SDS011;28511;42.680;23.252;2023-04-03T07:38:25;1.15;;;0.82;;
42864;SDS011;28511;42.680;23.252;2023-04-03T07:40:51;2.67;;;0.90;;
42864;SDS011;28511;42.680;23.252;2023-04-03T07:43:18;1.55;;;1.25;;
42864;SDS011;28511;42.680;23.252;2023-04-03T07:45:43;1.08;;;1.00;;
42864;SDS011;28511;42.680;23.252;2023-04-03T07:48:12;0.70;;;0.68;;
42864;SDS011;28511;42.680;23.252;2023-04-03T07:50:39;1.85;;;1.20;;
42864;SDS011;28511;42.680;23.252;2023-04-03T07:53:05;1.30;;;1.23;;
42864;SDS011;28511;42.680;23.252;2023-04-03T07:55:31;3.78;;;2.03;;
42864;SDS011;28511;42.680;23.252;2023-04-03T07:57:56;2.55;;;1.42;;
42864;SDS011;28511;42.680;23.252;2023-04-03T08:00:22;1.75;;;0.82;;
42864;SDS011;28511;42.680;23.252;2023-04-03T08:02:47;0.70;;;0.70;;
42864;SDS011;28511;42.680;23.252;2023-04-03T08:05:16;1.70;;;1.02;;
42864;SDS011;28511;42.680;23.252;2023-04-03T08:07:41;1.65;;;1.25;;
42864;SDS011;28511;42.680;23.252;2023-04-03T08:10:07;0.75;;;0.75;;
42864;SDS011;28511;42.680;23.252;2023-04-03T08:12:33;9.27;;;1.33;;
42864;SDS011;28511;42.680;23.252;2023-04-03T08:14:59;1.73;;;1.50;;
42864;SDS011;28511;42.680;23.252;2023-04-03T08:17:25;1.75;;;1.15;;
42864;SDS011;28511;42.680;23.252;2023-04-03T08:19:51;2.35;;;2.10;;
42864;SDS011;28511;42.680;23.252;2023-04-03T08:22:16;4.82;;;2.63;;
42864;SDS011;28511;42.680;23.252;2023-04-03T08:24:41;3.80;;;2.17;;
42864;SDS011;28511;42.680;23.252;2023-04-03T08:27:07;4.00;;;2.50;;
42864;SDS011;28511;42.680;23.252;2023-04-03T08:29:32;1.77;;;1.50;;
42864;SDS011;28511;42.680;23.252;2023-04-03T08:32:00;2.03;;;1.83;;
42864;SDS011;28511;42.680;23.252;2023-04-03T08:34:25;1.63;;;1.40;;
42864;SDS011;28511;42.680;23.252;2023-04-03T08:36:51;5.80;;;2.80;;
42864;SDS011;28511;42.680;23.252;2023-04-03T08:39:16;3.15;;;2.67;;
42864;SDS011;28511;42.680;23.252;2023-04-03T08:41:42;3.38;;;2.50;;
42864;SDS011;28511;42.680;23.252;2023-04-03T08:44:14;2.45;;;1.98;;
42864;SDS011;28511;42.680;23.252;2023-04-03T08:49:35;3.47;;;2.88;;
42864;SDS011;28511;42.680;23.252;2023-04-03T08:51:59;3.97;;;2.55;;
42864;SDS011;28511;42.680;23.252;2023-04-03T08:56:54;3.55;;;1.95;;
42864;SDS011;28511;42.680;23.252;2023-04-03T08:59:24;3.90;;;2.28;;
42864;SDS011;28511;42.680;23.252;2023-04-03T09:01:51;4.60;;;2.30;;
42864;SDS011;28511;42.680;23.252;2023-04-03T09:04:17;3.35;;;3.03;;
42864;SDS011;28511;42.680;23.252;2023-04-03T09:06:44;5.18;;;2.83;;
42864;SDS011;28511;42.680;23.252;2023-04-03T09:14:36;2.42;;;2.22;;
42864;SDS011;28511;42.680;23.252;2023-04-03T09:17:21;3.70;;;2.90;;
42864;SDS011;28511;42.680;23.252;2023-04-03T09:20:02;6.30;;;4.07;;
42864;SDS011;28511;42.680;23.252;2023-04-03T09:22:32;3.75;;;3.15;;
42864;SDS011;28511;42.680;23.252;2023-04-03T09:24:59;4.75;;;3.28;;
42864;SDS011;28511;42.680;23.252;2023-04-03T09:27:27;3.58;;;3.25;;
42864;SDS011;28511;42.680;23.252;2023-04-03T09:29:56;2.92;;;2.58;;
42864;SDS011;28511;42.680;23.252;2023-04-03T09:34:52;4.80;;;3.92;;
42864;SDS011;28511;42.680;23.252;2023-04-03T09:37:40;8.32;;;3.67;;
42864;SDS011;28511;42.680;23.252;2023-04-03T09:40:04;4.00;;;2.50;;
42864;SDS011;28511;42.680;23.252;2023-04-03T09:42:35;6.05;;;3.25;;
42864;SDS011;28511;42.680;23.252;2023-04-03T09:45:18;6.53;;;3.95;;
42864;SDS011;28511;42.680;23.252;2023-04-03T09:47:46;3.92;;;2.75;;
42864;SDS011;28511;42.680;23.252;2023-04-03T09:52:38;5.18;;;3.47;;
42864;SDS011;28511;42.680;23.252;2023-04-03T09:55:20;4.63;;;3.35;;
42864;SDS011;28511;42.680;23.252;2023-04-03T09:57:52;4.55;;;2.25;;
42864;SDS011;28511;42.680;23.252;2023-04-03T10:00:28;6.63;;;3.58;;
42864;SDS011;28511;42.680;23.252;2023-04-03T10:02:56;4.35;;;3.38;;
42864;SDS011;28511;42.680;23.252;2023-04-03T10:05:36;4.15;;;2.83;;
42864;SDS011;28511;42.680;23.252;2023-04-03T10:10:33;8.32;;;2.85;;
42864;SDS011;28511;42.680;23.252;2023-04-03T10:13:12;2.97;;;2.47;;
42864;SDS011;28511;42.680;23.252;2023-04-03T10:15:46;3.83;;;1.70;;
42864;SDS011;28511;42.680;23.252;2023-04-03T10:21:06;2.47;;;1.55;;
42864;SDS011;28511;42.680;23.252;2023-04-03T10:23:35;3.83;;;2.70;;
42864;SDS011;28511;42.680;23.252;2023-04-03T10:36:51;2.20;;;2.00;;
42864;SDS011;28511;42.680;23.252;2023-04-03T10:47:22;2.90;;;1.55;;
42864;SDS011;28511;42.680;23.252;2023-04-03T10:49:49;0.95;;;0.93;;
42864;SDS011;28511;42.680;23.252;2023-04-03T10:52:24;2.47;;;0.98;;
42864;SDS011;28511;42.680;23.252;2023-04-03T10:55:16;3.17;;;1.90;;
42864;SDS011;28511;42.680;23.252;2023-04-03T10:57:50;0.50;;;0.50;;
42864;SDS011;28511;42.680;23.252;2023-04-03T11:00:20;1.02;;;0.98;;
42864;SDS011;28511;42.680;23.252;2023-04-03T11:02:49;3.83;;;2.50;;
42864;SDS011;28511;42.680;23.252;2023-04-03T11:07:48;1.58;;;1.45;;
42864;SDS011;28511;42.680;23.252;2023-04-03T11:10:17;1.67;;;1.58;;
42864;SDS011;28511;42.680;23.252;2023-04-03T11:12:48;4.70;;;2.15;;
42864;SDS011;28511;42.680;23.252;2023-04-03T11:15:19;2.08;;;1.02;;
42864;SDS011;28511;42.680;23.252;2023-04-03T11:17:51;1.52;;;1.02;;
42864;SDS011;28511;42.680;23.252;2023-04-03T11:22:53;0.70;;;0.70;;
42864;SDS011;28511;42.680;23.252;2023-04-03T11:25:25;1.48;;;0.95;;
42864;SDS011;28511;42.680;23.252;2023-04-03T11:27:58;4.30;;;2.47;;
42864;SDS011;28511;42.680;23.252;2023-04-03T11:30:32;1.15;;;0.85;;
42864;SDS011;28511;42.680;23.252;2023-04-03T11:33:05;1.00;;;1.00;;
42864;SDS011;28511;42.680;23.252;2023-04-03T11:35:32;1.10;;;1.10;;
42864;SDS011;28511;42.680;23.252;2023-04-03T11:37:58;1.27;;;1.10;;
42864;SDS011;28511;42.680;23.252;2023-04-03T11:40:26;1.10;;;1.10;;
42864;SDS011;28511;42.680;23.252;2023-04-03T11:43:03;1.17;;;0.85;;
42864;SDS011;28511;42.680;23.252;2023-04-03T11:48:01;2.00;;;0.70;;
42864;SDS011;28511;42.680;23.252;2023-04-03T11:55:51;2.92;;;1.27;;
42864;SDS011;28511;42.680;23.252;2023-04-03T12:00:57;0.63;;;0.63;;
42864;SDS011;28511;42.680;23.252;2023-04-03T12:08:52;1.30;;;1.17;;
42864;SDS011;28511;42.680;23.252;2023-04-03T12:24:01;0.47;;;0.47;;
42864;SDS011;28511;42.680;23.252;2023-04-03T12:29:34;1.17;;;1.08;;
42864;SDS011;28511;42.680;23.252;2023-04-03T12:48:20;1.52;;;1.42;;
42864;SDS011;28511;42.680;23.252;2023-04-03T12:50:48;2.65;;;1.52;;
42864;SDS011;28511;42.680;23.252;2023-04-03T12:53:19;0.50;;;0.50;;
42864;SDS011;28511;42.680;23.252;2023-04-03T12:55:50;1.50;;;1.10;;
42864;SDS011;28511;42.680;23.252;2023-04-03T12:58:22;2.15;;;1.88;;
42864;SDS011;28511;42.680;23.252;2023-04-03T13:03:56;0.98;;;0.98;;
42864;SDS011;28511;42.680;23.252;2023-04-03T13:06:28;1.45;;;1.38;;
42864;SDS011;28511;42.680;23.252;2023-04-03T13:08:57;1.55;;;1.23;;
42864;SDS011;28511;42.680;23.252;2023-04-03T13:11:28;1.42;;;1.33;;
42864;SDS011;28511;42.680;23.252;2023-04-03T13:14:14;2.33;;;1.20;;
42864;SDS011;28511;42.680;23.252;2023-04-03T13:16:44;1.67;;;1.58;;
42864;SDS011;28511;42.680;23.252;2023-04-03T13:19:18;1.83;;;1.73;;
42864;SDS011;28511;42.680;23.252;2023-04-03T13:21:44;3.75;;;0.82;;
42864;SDS011;28511;42.680;23.252;2023-04-03T13:24:10;0.30;;;0.30;;
42864;SDS011;28511;42.680;23.252;2023-04-03T13:26:37;1.38;;;1.27;;
42864;SDS011;28511;42.680;23.252;2023-04-03T13:29:03;0.77;;;0.77;;
42864;SDS011;28511;42.680;23.252;2023-04-03T13:31:30;0.38;;;0.38;;
42864;SDS011;28511;42.680;23.252;2023-04-03T13:36:32;0.70;;;0.70;;
42864;SDS011;28511;42.680;23.252;2023-04-03T13:41:47;0.35;;;0.35;;
42864;SDS011;28511;42.680;23.252;2023-04-03T13:46:50;0.20;;;0.20;;
42864;SDS011;28511;42.680;23.252;2023-04-03T13:49:35;1.02;;;1.00;;
42864;SDS011;28511;42.680;23.252;2023-04-03T13:52:02;0.40;;;0.40;;
42864;SDS011;28511;42.680;23.252;2023-04-03T13:54:37;0.75;;;0.75;;
42864;SDS011;28511;42.680;23.252;2023-04-03T13:57:13;0.35;;;0.35;;
42864;SDS011;28511;42.680;23.252;2023-04-03T13:59:38;0.68;;;0.68;;
42864;SDS011;28511;42.680;23.252;2023-04-03T14:04:45;0.50;;;0.50;;
42864;SDS011;28511;42.680;23.252;2023-04-03T14:07:11;0.38;;;0.38;;
42864;SDS011;28511;42.680;23.252;2023-04-03T14:09:36;0.55;;;0.45;;
42864;SDS011;28511;42.680;23.252;2023-04-03T14:12:04;0.63;;;0.63;;
42864;SDS011;28511;42.680;23.252;2023-04-03T14:14:31;0.43;;;0.43;;
42864;SDS011;28511;42.680;23.252;2023-04-03T14:16:58;0.20;;;0.20;;
42864;SDS011;28511;42.680;23.252;2023-04-03T14:19:25;3.97;;;1.88;;
42864;SDS011;28511;42.680;23.252;2023-04-03T14:21:51;1.13;;;1.02;;
42864;SDS011;28511;42.680;23.252;2023-04-03T14:24:18;0.50;;;0.50;;
42864;SDS011;28511;42.680;23.252;2023-04-03T14:26:44;1.50;;;1.13;;
42864;SDS011;28511;42.680;23.252;2023-04-03T14:29:10;0.75;;;0.75;;
42864;SDS011;28511;42.680;23.252;2023-04-03T14:31:35;2.00;;;1.65;;
42864;SDS011;28511;42.680;23.252;2023-04-03T14:34:01;0.77;;;0.77;;
42864;SDS011;28511;42.680;23.252;2023-04-03T14:36:27;3.00;;;2.75;;
42864;SDS011;28511;42.680;23.252;2023-04-03T14:38:53;1.17;;;1.08;;
42864;SDS011;28511;42.680;23.252;2023-04-03T14:41:20;2.30;;;0.95;;
42864;SDS011;28511;42.680;23.252;2023-04-03T14:43:48;0.35;;;0.35;;
42864;SDS011;28511;42.680;23.252;2023-04-03T14:46:28;2.75;;;2.50;;
42864;SDS011;28511;42.680;23.252;2023-04-03T14:48:54;1.17;;;0.70;;
42864;SDS011;28511;42.680;23.252;2023-04-03T14:51:20;0.65;;;0.65;;
42864;SDS011;28511;42.680;23.252;2023-04-03T14:53:45;1.85;;;1.15;;
42864;SDS011;28511;42.680;23.252;2023-04-03T14:56:12;0.57;;;0.57;;
42864;SDS011;28511;42.680;23.252;2023-04-03T14:58:37;0.52;;;0.52;;
42864;SDS011;28511;42.680;23.252;2023-04-03T15:01:02;1.40;;;0.93;;
42864;SDS011;28511;42.680;23.252;2023-04-03T15:03:28;0.77;;;0.77;;
42864;SDS011;28511;42.680;23.252;2023-04-03T15:05:53;2.92;;;1.27;;
42864;SDS011;28511;42.680;23.252;2023-04-03T15:08:22;0.20;;;0.20;;
42864;SDS011;28511;42.680;23.252;2023-04-03T15:10:49;0.80;;;0.80;;
42864;SDS011;28511;42.680;23.252;2023-04-03T15:13:14;0.85;;;0.85;;
42864;SDS011;28511;42.680;23.252;2023-04-03T15:15:40;0.63;;;0.63;;
42864;SDS011;28511;42.680;23.252;2023-04-03T15:18:06;0.38;;;0.38;;
42864;SDS011;28511;42.680;23.252;2023-04-03T15:20:31;0.30;;;0.30;;
42864;SDS011;28511;42.680;23.252;2023-04-03T15:22:58;0.85;;;0.85;;
42864;SDS011;28511;42.680;23.252;2023-04-03T15:25:26;0.30;;;0.30;;
42864;SDS011;28511;42.680;23.252;2023-04-03T15:27:52;0.20;;;0.20;;
42864;SDS011;28511;42.680;23.252;2023-04-03T15:30:18;0.68;;;0.68;;
42864;SDS011;28511;42.680;23.252;2023-04-03T15:32:44;0.57;;;0.57;;
42864;SDS011;28511;42.680;23.252;2023-04-03T15:35:09;0.22;;;0.22;;
42864;SDS011;28511;42.680;23.252;2023-04-03T15:37:35;0.73;;;0.73;;
42864;SDS011;28511;42.680;23.252;2023-04-03T15:40:00;0.40;;;0.40;;
42864;SDS011;28511;42.680;23.252;2023-04-03T15:42:25;0.43;;;0.43;;
42864;SDS011;28511;42.680;23.252;2023-04-03T15:47:41;0.30;;;0.30;;
42864;SDS011;28511;42.680;23.252;2023-04-03T15:50:06;0.45;;;0.45;;
42864;SDS011;28511;42.680;23.252;2023-04-03T15:52:33;0.40;;;0.40;;
42864;SDS011;28511;42.680;23.252;2023-04-03T15:54:58;0.40;;;0.40;;
42864;SDS011;28511;42.680;23.252;2023-04-03T15:57:23;0.30;;;0.30;;
42864;SDS011;28511;42.680;23.252;2023-04-03T15:59:51;0.63;;;0.63;;
42864;SDS011;28511;42.680;23.252;2023-04-03T16:02:16;0.95;;;0.75;;
42864;SDS011;28511;42.680;23.252;2023-04-03T16:04:42;0.30;;;0.30;;
42864;SDS011;28511;42.680;23.252;2023-04-03T16:07:07;0.30;;;0.30;;
42864;SDS011;28511;42.680;23.252;2023-04-03T16:09:32;0.20;;;0.20;;
42864;SDS011;28511;42.680;23.252;2023-04-03T16:11:58;0.20;;;0.20;;
42864;SDS011;28511;42.680;23.252;2023-04-03T16:14:23;0.30;;;0.30;;
42864;SDS011;28511;42.680;23.252;2023-04-03T16:16:49;0.20;;;0.20;;
42864;SDS011;28511;42.680;23.252;2023-04-03T16:19:14;0.38;;;0.38;;
42864;SDS011;28511;42.680;23.252;2023-04-03T16:21:39;0.22;;;0.22;;
42864;SDS011;28511;42.680;23.252;2023-04-03T16:24:04;0.30;;;0.30;;